Time;durP1;ratioP1;P1;durP2;ratioP2;P2;SDS_P1;SDS_P2;PMS_P1;PMS_P2;Temp;Humidity;BMP_temperature;BMP_pressure;BME280_temperature;BME280_humidity;BME280_pressure;Samples;Min_cycle;Max_cycle;Signal;HPM_P1;HPM_P2
2022/04/29 00:02:14;;;;;;;3.95;1.30;;;;;;;1.85;82.29;101288.47;4994580;28;20062;-81
2022/04/29 00:04:42;;;;;;;1.50;1.00;;;;;;;1.87;81.82;101292.63;4993824;28;20052;-81
2022/04/29 00:07:09;;;;;;;3.45;1.38;;;;;;;1.90;82.08;101288.69;5009970;28;20038;-80
2022/04/29 00:09:35;;;;;;;1.25;1.08;;;;;;;1.93;82.46;101288.28;4993938;28;20088;-81
2022/04/29 00:12:02;;;;;;;2.40;1.10;;;;;;;1.99;82.71;101290.16;4997154;28;20081;-80
2022/04/29 00:14:29;;;;;;;1.25;0.98;;;;;;;2.00;82.97;101281.81;4986762;28;20041;-81
2022/04/29 00:17:05;;;;;;;1.67;1.05;;;;;;;2.00;82.99;101275.56;4993925;28;20042;-81
2022/04/29 00:19:31;;;;;;;1.10;0.80;;;;;;;2.01;82.39;101290.78;4993683;28;20125;-81
2022/04/29 00:21:59;;;;;;;2.90;1.05;;;;;;;1.96;82.69;101290.56;4993967;28;20524;-80
2022/04/29 00:24:25;;;;;;;1.25;0.95;;;;;;;1.89;82.74;101279.72;5026433;28;20069;-81
2022/04/29 00:26:50;;;;;;;1.05;0.80;;;;;;;1.75;83.33;101284.34;4994440;28;20073;-81
2022/04/29 00:29:17;;;;;;;2.08;1.10;;;;;;;1.64;83.27;101273.28;4993746;28;20077;-81
2022/04/29 00:31:43;;;;;;;1.67;1.00;;;;;;;1.55;83.99;101274.50;4993132;28;20057;-81
2022/04/29 00:34:09;;;;;;;1.35;1.13;;;;;;;1.56;84.26;101276.16;4994463;28;20120;-81
2022/04/29 00:36:34;;;;;;;1.63;1.20;;;;;;;1.57;84.58;101275.16;4992619;28;20098;-81
2022/04/29 00:39:01;;;;;;;2.00;1.00;;;;;;;1.59;85.32;101270.38;5012240;28;20133;-79
2022/04/29 00:41:26;;;;;;;1.23;1.13;;;;;;;1.66;86.00;101258.50;4987985;28;20042;-79
2022/04/29 00:44:06;;;;;;;2.50;0.93;;;;;;;1.64;86.08;101257.06;4993014;28;20457;-79
2022/04/29 00:46:36;;;;;;;1.40;1.20;;;;;;;1.65;86.07;101261.44;4983596;28;20053;-81
2022/04/29 00:49:03;;;;;;;1.38;0.98;;;;;;;1.75;86.45;101259.16;4993541;28;20037;-80
2022/04/29 00:51:29;;;;;;;2.08;0.98;;;;;;;1.73;86.43;101255.78;4992645;28;20045;-80
2022/04/29 00:53:55;;;;;;;1.70;0.80;;;;;;;1.73;86.84;101248.50;5024874;28;20038;-81
2022/04/29 00:56:21;;;;;;;1.65;1.13;;;;;;;1.76;86.92;101248.13;5008560;28;20054;-80
2022/04/29 00:58:52;;;;;;;1.17;1.08;;;;;;;1.85;86.79;101254.13;5025897;28;20042;-81
2022/04/29 01:01:20;;;;;;;2.10;0.98;;;;;;;1.87;86.66;101257.47;5025557;28;20116;-80
2022/04/29 01:03:46;;;;;;;1.40;1.00;;;;;;;1.85;86.90;101256.00;4993819;28;20050;-80
2022/04/29 01:06:11;;;;;;;1.30;1.00;;;;;;;1.88;86.90;101251.00;5008428;28;20532;-81
2022/04/29 01:08:37;;;;;;;1.60;0.90;;;;;;;1.94;87.20;101250.19;5008854;28;20049;-81
2022/04/29 01:11:03;;;;;;;2.35;1.25;;;;;;;1.97;87.21;101243.53;5003376;28;20045;-81
2022/04/29 01:13:29;;;;;;;1.17;1.08;;;;;;;1.98;87.21;101237.91;4972970;28;20041;-81
2022/04/29 01:15:56;;;;;;;2.38;1.55;;;;;;;2.03;87.62;101243.50;4992665;28;20121;-81
2022/04/29 01:18:22;;;;;;;1.55;1.10;;;;;;;2.00;87.46;101233.09;4959297;28;20096;-81
2022/04/29 01:21:00;;;;;;;0.93;0.93;;;;;;;2.00;87.28;101243.94;4976700;28;20092;-81
2022/04/29 01:23:25;;;;;;;1.42;1.20;;;;;;;2.04;87.82;101238.91;4972815;28;20046;-80
2022/04/29 01:25:51;;;;;;;1.60;1.00;;;;;;;2.04;87.77;101234.34;4984951;28;20088;-81
2022/04/29 01:28:17;;;;;;;0.90;0.80;;;;;;;2.07;87.89;101233.91;4992570;28;20046;-81
2022/04/29 01:30:45;;;;;;;0.90;0.90;;;;;;;2.08;88.14;101237.44;4992927;28;20572;-82
2022/04/29 01:33:12;;;;;;;1.25;0.90;;;;;;;2.07;88.21;101233.91;4998591;28;20515;-82
2022/04/29 01:35:38;;;;;;;1.65;0.90;;;;;;;2.07;87.77;101233.09;4993323;28;20582;-82
2022/04/29 01:38:04;;;;;;;0.82;0.82;;;;;;;2.04;88.16;101228.94;4992351;28;20038;-81
2022/04/29 01:40:29;;;;;;;0.95;0.90;;;;;;;2.01;88.16;101229.34;5000967;28;20053;-81
2022/04/29 01:42:59;;;;;;;0.70;0.70;;;;;;;1.99;88.16;101226.03;4991970;28;20085;-81
2022/04/29 01:45:24;;;;;;;1.08;0.90;;;;;;;1.99;88.53;101225.19;5001058;28;20532;-81
2022/04/29 01:48:05;;;;;;;1.92;1.00;;;;;;;2.00;88.85;101216.03;4972591;28;20046;-81
2022/04/29 01:50:42;;;;;;;2.20;0.80;;;;;;;1.96;88.49;101212.09;4977297;28;20109;-81
2022/04/29 01:53:08;;;;;;;0.77;0.77;;;;;;;1.95;88.55;101213.97;4993213;28;20046;-81
2022/04/29 01:55:33;;;;;;;2.13;1.20;;;;;;;1.93;88.44;101210.63;5007192;28;20038;-80
2022/04/29 01:57:59;;;;;;;1.30;1.20;;;;;;;1.96;89.05;101212.09;4993041;28;20034;-80
2022/04/29 02:00:24;;;;;;;1.10;0.88;;;;;;;1.99;89.20;101212.50;5028085;28;20049;-80
2022/04/29 02:02:50;;;;;;;0.88;0.88;;;;;;;2.00;89.33;101207.91;4993289;28;20034;-80
2022/04/29 02:05:18;;;;;;;1.80;1.10;;;;;;;2.00;89.77;101210.63;4980882;28;20043;-80
2022/04/29 02:12:15;;;;;;;1.05;0.88;;;;;;;2.02;89.20;101214.78;4988964;28;20579;-81
2022/04/29 02:14:49;;;;;;;0.82;0.82;;;;;;;1.98;89.59;101213.53;4979529;28;20074;-82
2022/04/29 02:17:18;;;;;;;2.10;1.40;;;;;;;2.01;89.26;101223.94;5024520;28;20140;-81
2022/04/29 02:19:43;;;;;;;2.63;1.27;;;;;;;2.07;89.58;101214.13;4976265;28;20125;-82
2022/04/29 02:22:09;;;;;;;1.48;1.30;;;;;;;2.08;89.50;101219.38;4992062;28;20046;-82
2022/04/29 02:24:36;;;;;;;0.70;0.70;;;;;;;2.07;89.97;101225.78;4991872;28;20042;-82
2022/04/29 02:27:03;;;;;;;1.00;0.70;;;;;;;2.05;90.08;101225.19;4991545;28;20138;-80
2022/04/29 02:29:29;;;;;;;0.47;0.47;;;;;;;1.99;90.33;101219.78;4959404;28;20093;-81
2022/04/29 02:31:58;;;;;;;3.20;0.80;;;;;;;1.89;90.13;101225.59;5005547;28;20046;-81
2022/04/29 02:34:23;;;;;;;;;;;;;;;1.82;90.04;101230.22;4992337;28;20386;-81
2022/04/29 02:36:51;;;;;;;1.30;0.60;;;;;;;1.76;89.81;101233.75;4991142;28;19996;-81
2022/04/29 02:39:18;;;;;;;1.38;0.65;;;;;;;1.63;89.88;101231.03;5023860;28;20089;-81
2022/04/29 02:41:44;;;;;;;0.57;0.50;;;;;;;1.48;89.73;101223.97;4991139;28;20042;-81
2022/04/29 02:44:11;;;;;;;1.85;0.63;;;;;;;1.30;89.54;101226.44;4991373;28;20556;-81
2022/04/29 02:47:06;;;;;;;1.23;0.88;;;;;;;1.16;89.52;101232.84;4989672;28;20042;-80
2022/04/29 02:49:23;;;;;;;0.73;0.60;;;;;;;1.01;89.22;101230.31;4990415;28;20065;-80
2022/04/29 02:51:49;;;;;;;0.52;0.50;;;;;;;0.94;88.94;101232.19;5023863;28;20547;-80
2022/04/29 02:54:15;;;;;;;0.63;0.40;;;;;;;0.90;89.22;101234.47;5023438;28;20031;-80
2022/04/29 02:56:41;;;;;;;0.57;0.40;;;;;;;0.91;89.74;101221.78;4989931;28;20038;-80
2022/04/29 02:59:12;;;;;;;0.73;0.60;;;;;;;0.97;89.63;101228.25;5021918;28;20034;-80
2022/04/29 03:01:38;;;;;;;0.40;0.40;;;;;;;1.01;90.06;101229.50;4993291;28;20048;-80
2022/04/29 03:04:04;;;;;;;1.30;0.68;;;;;;;1.07;90.39;101221.41;4995957;28;20042;-80
2022/04/29 03:06:30;;;;;;;0.63;0.60;;;;;;;1.13;90.34;101222.47;4995787;28;20496;-80
2022/04/29 03:08:56;;;;;;;0.40;0.40;;;;;;;1.17;90.28;101226.41;4965237;28;20097;-80
2022/04/29 03:11:23;;;;;;;0.50;0.50;;;;;;;1.25;90.57;101228.94;4971090;28;20046;-80
2022/04/29 03:13:49;;;;;;;0.50;0.50;;;;;;;1.30;90.79;101220.19;4964038;28;20042;-80
2022/04/29 03:16:16;;;;;;;0.60;0.60;;;;;;;1.35;90.85;101217.69;4975075;28;20412;-80
2022/04/29 03:18:43;;;;;;;0.50;0.43;;;;;;;1.39;90.93;101219.81;5021840;28;20035;-81
2022/04/29 03:21:08;;;;;;;0.43;0.43;;;;;;;1.50;90.99;101221.03;4973945;28;20485;-81
2022/04/29 03:23:34;;;;;;;1.25;0.50;;;;;;;1.56;91.63;101219.38;5006387;28;20084;-79
2022/04/29 03:26:00;;;;;;;0.50;0.50;;;;;;;1.68;91.62;101223.13;4992512;28;20596;-79
2022/04/29 03:28:26;;;;;;;0.38;0.38;;;;;;;2.16;91.19;101228.28;5010900;28;20034;-85
2022/04/29 03:30:52;;;;;;;1.60;0.60;;;;;;;2.73;91.33;101231.00;4984447;28;20058;-86
2022/04/29 03:33:21;;;;;;;0.68;0.68;;;;;;;3.06;92.06;101227.31;4996044;28;20045;-86
2022/04/29 03:35:50;;;;;;;0.80;0.60;;;;;;;3.12;92.44;101229.16;4978304;28;20045;-86
2022/04/29 03:38:24;;;;;;;1.17;0.60;;;;;;;3.07;92.35;101236.28;4993794;28;20042;-87
2022/04/29 03:40:52;;;;;;;0.95;0.52;;;;;;;3.05;92.62;101235.66;4995365;28;20041;-88
2022/04/29 03:43:21;;;;;;;0.60;0.60;;;;;;;3.19;91.87;101232.66;4963994;28;20140;-90
2022/04/29 03:45:49;;;;;;;0.70;0.70;;;;;;;3.63;92.11;101239.03;4993226;28;20523;-87
2022/04/29 03:48:24;;;;;;;2.10;0.88;;;;;;;3.67;92.06;101242.97;4978785;28;20038;-89
2022/04/29 03:51:07;;;;;;;0.60;0.60;;;;;;;3.53;91.83;101246.84;5009965;28;20039;-88
2022/04/29 03:53:33;;;;;;;0.57;0.50;;;;;;;3.46;91.38;101241.44;4991541;28;20053;-85
2022/04/29 03:56:03;;;;;;;0.60;0.60;;;;;;;3.36;91.26;101232.97;4974357;28;20133;-83
2022/04/29 03:58:28;;;;;;;0.60;0.60;;;;;;;3.31;90.96;101230.94;4990200;28;20121;-83
2022/04/29 04:00:55;;;;;;;1.50;0.60;;;;;;;3.30;90.75;101236.56;4990492;28;20068;-83
2022/04/29 04:03:49;;;;;;;2.35;0.80;;;;;;;3.31;90.24;101236.34;4983305;28;20053;-83
2022/04/29 04:09:03;;;;;;;0.70;0.57;;;;;;;3.29;90.29;101237.59;4976455;28;20034;-83
2022/04/29 04:11:29;;;;;;;0.75;0.55;;;;;;;3.18;89.98;101246.44;4973899;28;20065;-83
2022/04/29 04:13:55;;;;;;;0.70;0.70;;;;;;;2.96;89.73;101254.09;4954497;28;20077;-77
2022/04/29 04:16:28;;;;;;;0.65;0.65;;;;;;;2.74;89.73;101250.81;4990140;28;20049;-79
2022/04/29 04:18:54;;;;;;;0.95;0.80;;;;;;;2.59;89.27;101253.78;4973773;28;20133;-79
2022/04/29 04:21:19;;;;;;;0.70;0.70;;;;;;;2.39;88.59;101253.84;4990973;28;20493;-81
2022/04/29 04:23:45;;;;;;;0.90;0.70;;;;;;;2.17;87.70;101257.03;4974862;28;20109;-82
2022/04/29 04:26:11;;;;;;;0.70;0.70;;;;;;;1.99;87.95;101255.81;4973655;28;20461;-82
2022/04/29 04:28:37;;;;;;;1.83;0.80;;;;;;;1.86;87.89;101263.91;4974877;28;20030;-80
2022/04/29 04:31:04;;;;;;;1.08;0.70;;;;;;;1.75;88.27;101261.84;4977245;28;20054;-80
2022/04/29 04:33:40;;;;;;;0.90;0.90;;;;;;;1.70;88.35;101264.34;4997334;28;20045;-80
2022/04/29 04:36:06;;;;;;;0.80;0.80;;;;;;;1.62;88.69;101268.09;5013244;28;20042;-80
2022/04/29 04:38:32;;;;;;;1.48;0.80;;;;;;;1.65;89.18;101259.56;5006942;28;20120;-80
2022/04/29 04:41:08;;;;;;;0.60;0.60;;;;;;;1.77;89.46;101267.88;4993434;28;20046;-80
2022/04/29 04:43:35;;;;;;;1.02;0.93;;;;;;;1.89;90.24;101268.91;4976777;28;20548;-80
2022/04/29 04:46:06;;;;;;;0.73;0.65;;;;;;;2.03;90.77;101269.75;4977408;28;20050;-79
2022/04/29 04:48:41;;;;;;;1.15;0.75;;;;;;;2.20;91.02;101270.13;5005324;28;20038;-80
2022/04/29 04:51:19;;;;;;;;;;;;;;;2.36;91.51;101272.41;5014237;28;20045;-80
2022/04/29 04:53:52;;;;;;;1.30;0.90;;;;;;;2.49;91.51;101274.25;5012786;28;19932;-79
2022/04/29 04:56:20;;;;;;;0.85;0.85;;;;;;;2.62;92.09;101277.78;5012545;28;20504;-79
2022/04/29 04:58:45;;;;;;;0.90;0.68;;;;;;;2.80;92.26;101281.66;5005666;28;20037;-79
2022/04/29 05:01:11;;;;;;;0.70;0.70;;;;;;;2.94;92.22;101275.13;4977550;28;20069;-79
2022/04/29 05:03:37;;;;;;;1.13;0.70;;;;;;;2.91;91.90;101279.09;5009181;28;20162;-80
2022/04/29 05:06:21;;;;;;;1.85;0.60;;;;;;;2.80;91.68;101281.66;4991935;28;20038;-83
2022/04/29 05:08:47;;;;;;;0.50;0.50;;;;;;;2.79;91.48;101285.44;4992684;28;20048;-80
2022/04/29 05:11:13;;;;;;;0.63;0.60;;;;;;;2.94;91.27;101289.50;4993974;28;20074;-81
2022/04/29 05:13:39;;;;;;;0.80;0.80;;;;;;;3.78;90.32;101280.25;5004716;28;20045;-80
2022/04/29 05:16:05;;;;;;;0.80;0.70;;;;;;;4.00;91.03;101285.31;4992613;28;20370;-81
2022/04/29 05:18:50;;;;;;;0.88;0.70;;;;;;;3.85;90.49;101283.75;5003573;28;20030;-80
2022/04/29 05:21:17;;;;;;;0.75;0.75;;;;;;;3.69;89.50;101286.19;4975560;28;20100;-80
2022/04/29 05:23:43;;;;;;;1.52;0.90;;;;;;;3.61;88.78;101290.81;4995063;28;20092;-80
2022/04/29 05:26:35;;;;;;;0.80;0.80;;;;;;;3.56;87.91;101295.25;5004028;28;20049;-80
2022/04/29 05:29:19;;;;;;;0.85;0.85;;;;;;;3.59;87.70;101302.94;5013006;28;20049;-80
2022/04/29 05:32:18;;;;;;;1.58;1.20;;;;;;;3.57;87.17;101295.03;4963562;28;20174;-80
2022/04/29 05:35:04;;;;;;;1.35;1.25;;;;;;;3.59;87.29;101295.63;5019442;28;20046;-80
2022/04/29 05:37:50;;;;;;;1.90;0.85;;;;;;;3.48;86.38;101304.50;4993257;28;20137;-80
2022/04/29 05:43:03;;;;;;;1.02;0.95;;;;;;;3.26;85.59;101308.56;4991866;28;20442;-79
2022/04/29 05:45:33;;;;;;;1.92;1.38;;;;;;;3.24;86.23;101306.06;4992084;28;20078;-79
2022/04/29 05:47:58;;;;;;;1.10;1.00;;;;;;;3.25;86.93;101312.31;4979100;28;20061;-77
2022/04/29 05:50:26;;;;;;;1.55;0.90;;;;;;;3.23;86.24;101307.13;4991725;28;20124;-78
2022/04/29 05:52:52;;;;;;;1.13;0.90;;;;;;;3.19;86.59;101322.16;5004320;28;20046;-83
2022/04/29 05:55:19;;;;;;;1.15;0.82;;;;;;;3.12;86.29;101324.06;4948485;28;20058;-79
2022/04/29 05:57:45;;;;;;;1.05;0.95;;;;;;;3.06;86.37;101324.91;4994733;28;20042;-79
2022/04/29 06:00:11;;;;;;;0.95;0.93;;;;;;;3.02;85.76;101335.38;4992821;28;20037;-80
2022/04/29 06:02:54;;;;;;;1.30;1.13;;;;;;;2.95;86.29;101329.16;4975258;28;20035;-79
2022/04/29 06:05:22;;;;;;;0.60;0.60;;;;;;;2.87;85.83;101333.97;5016467;28;20034;-78
2022/04/29 06:07:49;;;;;;;0.90;0.90;;;;;;;2.85;86.01;101336.88;4958021;28;20045;-78
2022/04/29 06:10:30;;;;;;;1.00;0.90;;;;;;;2.79;85.83;101345.06;5006072;28;20113;-79
2022/04/29 06:12:56;;;;;;;0.90;0.90;;;;;;;2.77;86.25;101339.81;4982765;28;20042;-79
2022/04/29 06:15:34;;;;;;;0.85;0.85;;;;;;;2.79;86.07;101345.88;4952585;28;20044;-80
2022/04/29 06:18:19;;;;;;;1.08;1.00;;;;;;;2.84;86.70;101342.53;5006119;28;20069;-79
2022/04/29 06:20:50;;;;;;;1.10;1.00;;;;;;;2.88;86.66;101350.00;4992403;28;20508;-79
2022/04/29 06:23:28;;;;;;;2.25;0.90;;;;;;;2.97;86.63;101353.34;4991474;28;20097;-80
2022/04/29 06:25:55;;;;;;;0.95;0.90;;;;;;;2.97;86.84;101353.34;4991238;28;20047;-79
2022/04/29 06:28:21;;;;;;;1.85;0.95;;;;;;;2.93;86.73;101361.03;4991198;28;20042;-80
2022/04/29 06:30:47;;;;;;;0.98;0.93;;;;;;;2.86;86.64;101364.81;5023579;28;20519;-80
2022/04/29 06:33:31;;;;;;;1.08;0.98;;;;;;;2.82;86.17;101371.72;4992122;28;20042;-80
2022/04/29 06:35:57;;;;;;;1.00;0.90;;;;;;;2.84;85.99;101383.19;5007294;28;20030;-79
2022/04/29 06:38:23;;;;;;;2.60;1.00;;;;;;;2.85;86.04;101382.13;4990990;28;20046;-80
2022/04/29 06:40:55;;;;;;;1.80;0.93;;;;;;;3.06;86.20;101373.72;4991039;28;20066;-79
2022/04/29 06:43:23;;;;;;;1.20;0.90;;;;;;;3.24;86.97;101376.56;4974589;28;20050;-80
2022/04/29 06:46:08;;;;;;;2.15;0.90;;;;;;;3.35;86.10;101393.25;5011101;28;20065;-80
2022/04/29 06:48:54;;;;;;;1.77;1.05;;;;;;;3.47;85.75;101389.66;4991719;28;20202;-79
2022/04/29 06:51:23;;;;;;;1.75;0.80;;;;;;;3.55;85.27;101393.97;4979116;28;20085;-79
2022/04/29 06:53:55;;;;;;;0.85;0.80;;;;;;;3.63;84.64;101399.13;4987184;28;20041;-79
2022/04/29 06:56:26;;;;;;;1.05;0.85;;;;;;;3.72;84.06;101400.56;4991243;28;20049;-79
2022/04/29 06:58:53;;;;;;;0.90;0.90;;;;;;;3.74;83.87;101401.19;4990734;28;20653;-78
2022/04/29 07:01:21;;;;;;;1.88;0.85;;;;;;;3.74;83.23;101411.22;4990515;28;20053;-79
2022/04/29 07:03:47;;;;;;;1.55;0.98;;;;;;;3.70;82.89;101416.25;4991188;28;20468;-79
2022/04/29 07:06:13;;;;;;;1.88;1.02;;;;;;;3.68;82.63;101431.09;4990780;28;20639;-80
2022/04/29 07:08:39;;;;;;;0.85;0.80;;;;;;;3.66;82.57;101428.59;4974449;28;20084;-79
2022/04/29 07:11:25;;;;;;;0.77;0.75;;;;;;;3.69;82.39;101425.44;4970430;28;20571;-80
2022/04/29 07:13:58;;;;;;;1.75;0.90;;;;;;;3.78;82.45;101424.13;4990400;28;20092;-80
2022/04/29 07:16:25;;;;;;;1.20;0.70;;;;;;;3.84;81.70;101426.00;4974091;28;20046;-79
2022/04/29 07:19:10;;;;;;;3.00;0.95;;;;;;;3.80;80.94;101426.63;4984500;28;20042;-78
2022/04/29 07:21:36;;;;;;;1.55;1.20;;;;;;;3.76;81.19;101431.66;4974097;28;20046;-78
2022/04/29 07:24:08;;;;;;;4.47;1.40;;;;;;;3.74;81.09;101436.47;4990071;28;20050;-79
2022/04/29 07:26:39;;;;;;;0.98;0.90;;;;;;;3.77;81.70;101436.03;4990493;28;20149;-79
2022/04/29 07:29:07;;;;;;;1.05;0.82;;;;;;;3.81;80.78;101436.41;4990589;28;20042;-79
2022/04/29 07:31:38;;;;;;;2.03;1.30;;;;;;;3.84;80.58;101442.28;4974767;28;20167;-79
2022/04/29 07:41:44;;;;;;;0.93;0.90;;;;;;;3.87;80.32;101441.84;4990350;28;20531;-79
2022/04/29 07:42:55;;;;;;;1.60;1.35;;;;;;;3.79;78.06;101466.50;4991569;28;20030;-79
2022/04/29 07:45:21;;;;;;;0.93;0.70;;;;;;;3.85;77.74;101468.38;4990126;28;20049;-79
2022/04/29 07:48:06;;;;;;;1.00;0.80;;;;;;;3.95;77.42;101459.75;4991605;28;20054;-79
2022/04/29 07:50:33;;;;;;;1.65;1.15;;;;;;;4.03;76.02;101464.94;4973817;28;20516;-77
2022/04/29 07:53:00;;;;;;;3.42;1.70;;;;;;;4.12;75.71;101477.19;4990127;28;20417;-77
2022/04/29 07:55:26;;;;;;;2.75;1.40;;;;;;;4.19;75.74;101469.03;4991081;28;20042;-77
2022/04/29 07:57:52;;;;;;;0.95;0.90;;;;;;;4.13;75.30;101478.03;4974259;28;20038;-78
2022/04/29 08:00:18;;;;;;;1.17;1.08;;;;;;;4.83;75.54;101478.75;4973788;28;20038;-78
2022/04/29 08:02:43;;;;;;;3.33;1.42;;;;;;;6.41;74.31;101473.31;5003109;28;20133;-81
2022/04/29 08:05:10;;;;;;;0.80;0.80;;;;;;;8.00;70.04;101482.16;4980984;28;20520;-78
2022/04/29 08:07:37;;;;;;;0.70;0.70;;;;;;;9.29;65.77;101471.22;5014421;28;20050;-78
2022/04/29 08:10:04;;;;;;;1.23;0.80;;;;;;;9.70;61.50;101466.28;4997219;28;20042;-78
2022/04/29 08:12:30;;;;;;;1.20;0.80;;;;;;;9.38;58.98;101462.59;5013244;28;20045;-78
2022/04/29 08:15:27;;;;;;;1.23;0.88;;;;;;;8.35;59.03;101470.25;4994932;28;20520;-80
2022/04/29 08:17:59;;;;;;;1.02;0.93;;;;;;;8.38;60.36;101472.50;4997176;28;20476;-79
2022/04/29 08:20:25;;;;;;;2.65;1.20;;;;;;;8.06;59.48;101481.19;5013104;28;20133;-80
2022/04/29 08:22:51;;;;;;;3.42;1.45;;;;;;;7.41;60.65;101503.31;4997184;28;20042;-80
2022/04/29 08:25:18;;;;;;;1.27;0.60;;;;;;;6.52;63.30;101501.69;5013152;28;20042;-80
2022/04/29 08:27:46;;;;;;;1.95;0.60;;;;;;;5.56;66.64;101505.25;4996299;28;20045;-80
2022/04/29 08:30:12;;;;;;;1.17;0.73;;;;;;;4.78;68.75;101522.09;4980802;28;20050;-81
2022/04/29 08:32:50;;;;;;;1.60;0.82;;;;;;;4.29;70.78;101515.53;5013078;28;20415;-80
2022/04/29 08:35:28;;;;;;;0.80;0.65;;;;;;;3.83;73.14;101510.38;4980266;28;20134;-81
2022/04/29 08:37:54;;;;;;;1.17;0.90;;;;;;;3.61;74.08;101512.50;5009591;28;20092;-79
2022/04/29 08:40:20;;;;;;;1.25;1.00;;;;;;;4.04;76.19;101511.94;4993468;28;20046;-80
2022/04/29 08:42:46;;;;;;;1.90;0.88;;;;;;;5.21;77.96;101507.72;4999243;28;20042;-78
2022/04/29 08:45:15;;;;;;;2.30;0.75;;;;;;;6.49;75.98;101510.34;4993186;28;20532;-79
2022/04/29 08:47:59;;;;;;;2.45;0.98;;;;;;;7.29;73.52;101507.09;5000461;28;20065;-79
2022/04/29 08:50:31;;;;;;;0.80;0.80;;;;;;;7.94;67.31;101498.69;5012781;28;20041;-80
2022/04/29 08:52:57;;;;;;;1.23;0.90;;;;;;;7.81;63.70;101505.28;5014087;28;20136;-81
2022/04/29 09:00:59;;;;;;;0.93;0.60;;;;;;;7.01;62.77;101510.56;4992917;28;20058;-81
2022/04/29 09:03:24;;;;;;;0.50;0.50;;;;;;;6.56;62.80;101519.25;4992724;28;20564;-80
2022/04/29 09:05:50;;;;;;;0.40;0.40;;;;;;;6.24;62.85;101527.66;4994273;28;20057;-81
2022/04/29 09:08:18;;;;;;;0.40;0.40;;;;;;;5.77;63.83;101539.38;4976682;28;20031;-81
2022/04/29 09:10:49;;;;;;;0.70;0.60;;;;;;;5.30;66.81;101537.13;4993971;28;20047;-81
2022/04/29 09:13:16;;;;;;;1.00;0.70;;;;;;;4.98;68.10;101546.41;4992784;28;20041;-81
2022/04/29 09:16:05;;;;;;;2.20;1.55;;;;;;;4.72;69.97;101542.03;4993689;28;20125;-81
2022/04/29 09:18:35;;;;;;;1.42;1.20;;;;;;;4.60;70.74;101543.78;4976438;28;20145;-80
2022/04/29 09:21:24;;;;;;;2.47;1.50;;;;;;;4.82;71.48;101551.34;4991596;28;20038;-82
2022/04/29 09:23:57;;;;;;;1.33;1.20;;;;;;;4.89;70.80;101535.00;4992656;28;20405;-81
2022/04/29 09:26:41;;;;;;;1.58;1.00;;;;;;;4.92;70.56;101541.88;4995879;28;20039;-82
2022/04/29 09:29:25;;;;;;;1.02;0.70;;;;;;;5.00;69.78;101539.69;4992758;28;20038;-82
2022/04/29 09:32:18;;;;;;;0.40;0.40;;;;;;;4.85;68.20;101548.19;4992654;28;20081;-81
2022/04/29 09:34:54;;;;;;;0.40;0.40;;;;;;;4.53;67.80;101554.72;4993890;28;20057;-81
2022/04/29 09:37:25;;;;;;;0.65;0.65;;;;;;;4.22;69.21;101556.34;4976244;28;20038;-82
2022/04/29 09:40:03;;;;;;;0.70;0.70;;;;;;;3.85;70.04;101568.81;4992686;28;20042;-86
2022/04/29 09:42:55;;;;;;;1.20;1.10;;;;;;;3.71;71.55;101564.47;5011408;28;20038;-83
2022/04/29 09:45:23;;;;;;;0.57;0.57;;;;;;;3.61;71.13;101564.06;5009226;28;20053;-85
2022/04/29 09:47:56;;;;;;;0.60;0.60;;;;;;;3.65;73.19;101568.06;4996219;28;20030;-84
2022/04/29 09:50:22;;;;;;;2.17;0.70;;;;;;;3.71;72.88;101567.19;4996188;28;20050;-83
2022/04/29 09:52:49;;;;;;;0.45;0.45;;;;;;;3.68;71.10;101575.78;5012656;28;20034;-85
2022/04/29 09:55:18;;;;;;;0.60;0.60;;;;;;;3.73;72.48;101575.97;5013767;28;20044;-86
2022/04/29 09:57:59;;;;;;;0.45;0.40;;;;;;;3.71;69.57;101580.75;4997464;28;20054;-86
2022/04/29 10:00:24;;;;;;;2.00;1.08;;;;;;;3.65;69.17;101569.94;4988843;28;20054;-88
2022/04/29 10:02:50;;;;;;;0.63;0.40;;;;;;;3.65;70.15;101568.06;4973260;28;20042;-86
2022/04/29 10:05:17;;;;;;;0.40;0.40;;;;;;;3.76;72.06;101572.81;4973067;28;20121;-85
2022/04/29 10:07:47;;;;;;;0.40;0.30;;;;;;;3.87;72.77;101568.59;4957246;28;20050;-85
2022/04/29 10:10:14;;;;;;;1.10;0.70;;;;;;;3.97;74.01;101570.84;4973985;28;20105;-83
2022/04/29 10:12:45;;;;;;;0.50;0.50;;;;;;;4.00;71.71;101571.28;4997786;28;20030;-83
2022/04/29 10:15:33;;;;;;;0.98;0.60;;;;;;;3.96;67.08;101575.44;5004442;28;20038;-85
2022/04/29 10:21:16;;;;;;;1.58;0.60;;;;;;;3.94;63.33;101572.13;4976336;28;20107;-88
2022/04/29 10:23:51;;;;;;;0.40;0.40;;;;;;;3.89;63.36;101571.94;4984990;28;20035;-90
2022/04/29 10:26:21;;;;;;;1.33;1.15;;;;;;;3.84;64.40;101582.63;4974639;28;20097;-91
2022/04/29 10:28:48;;;;;;;1.55;1.30;;;;;;;3.84;64.37;101583.44;4965502;28;20137;-89
2022/04/29 10:31:19;;;;;;;3.20;1.48;;;;;;;3.89;63.92;101591.78;4992215;28;20085;-93
2022/04/29 10:33:45;;;;;;;0.85;0.70;;;;;;;3.96;61.75;101585.47;4993013;28;20477;-92
2022/04/29 10:36:16;;;;;;;1.02;0.63;;;;;;;4.07;60.78;101584.81;4994724;28;20046;-93
2022/04/29 10:38:46;;;;;;;0.65;0.47;;;;;;;4.18;59.37;101589.59;4983240;28;20046;-91
2022/04/29 10:41:23;;;;;;;1.30;0.80;;;;;;;4.28;58.35;101595.38;4983450;28;20069;-92
2022/04/29 10:43:52;;;;;;;0.40;0.40;;;;;;;4.36;57.02;101592.44;5024453;28;20052;-90
2022/04/29 10:46:31;;;;;;;;;;;;;;;4.43;57.25;101598.66;4993314;28;20038;-90
2022/04/29 10:49:25;;;;;;;1.25;0.70;;;;;;;4.42;55.84;101598.88;4972954;28;19918;-90
2022/04/29 10:52:24;;;;;;;2.90;0.60;;;;;;;4.45;55.37;101602.00;4958792;28;20419;-90
2022/04/29 10:54:59;;;;;;;1.15;0.82;;;;;;;4.45;55.66;101607.41;4979122;28;20042;-90
2022/04/29 10:57:40;;;;;;;0.80;0.70;;;;;;;4.48;54.28;101596.09;4992455;28;20132;-91
2022/04/29 11:00:13;;;;;;;0.75;0.60;;;;;;;4.53;55.60;101598.19;4975332;28;20045;-91
2022/04/29 11:02:39;;;;;;;1.55;0.75;;;;;;;4.59;54.28;101599.19;4958605;28;20049;-91
2022/04/29 11:05:05;;;;;;;0.90;0.40;;;;;;;4.62;54.10;101610.47;4978245;28;20046;-90
2022/04/29 11:07:45;;;;;;;1.92;0.40;;;;;;;4.70;53.21;101615.66;4992478;28;20035;-90
2022/04/29 11:10:15;;;;;;;4.35;0.88;;;;;;;4.79;52.99;101606.19;4993334;28;20038;-90
2022/04/29 11:12:54;;;;;;;3.42;0.57;;;;;;;4.88;51.61;101612.19;4991582;28;20034;-90
2022/04/29 11:15:41;;;;;;;2.15;0.80;;;;;;;5.02;51.79;101610.19;4982429;28;20062;-83
2022/04/29 11:18:19;;;;;;;0.80;0.70;;;;;;;5.12;51.67;101608.66;4994713;28;20058;-76
2022/04/29 11:20:59;;;;;;;2.15;0.70;;;;;;;5.23;49.64;101609.84;4971602;28;20045;-76
2022/04/29 11:26:18;;;;;;;2.03;0.70;;;;;;;5.30;48.30;101631.53;4990561;28;20037;-76
2022/04/29 11:28:53;;;;;;;2.13;0.80;;;;;;;5.25;46.99;101645.00;4972621;28;20034;-75
2022/04/29 11:31:54;;;;;;;2.55;0.50;;;;;;;5.13;46.09;101634.81;4984465;28;20078;-77
2022/04/29 11:34:19;;;;;;;1.27;0.55;;;;;;;5.03;45.65;101641.78;4994279;28;20049;-77
2022/04/29 11:36:45;;;;;;;0.75;0.60;;;;;;;4.98;45.99;101634.28;4991142;28;20034;-87
2022/04/29 11:39:16;;;;;;;0.50;0.50;;;;;;;5.00;46.56;101632.19;4995859;28;20048;-86
2022/04/29 11:41:58;;;;;;;1.98;0.90;;;;;;;5.02;46.76;101635.50;4996020;28;20042;-86
2022/04/29 11:44:34;;;;;;;3.20;0.80;;;;;;;5.01;46.31;101636.56;5011092;28;20050;-84
2022/04/29 11:47:01;;;;;;;0.95;0.77;;;;;;;5.07;44.94;101632.97;4989299;28;20038;-85
2022/04/29 11:49:28;;;;;;;2.65;0.93;;;;;;;5.18;45.47;101638.75;4994957;28;20053;-90
2022/04/29 11:51:55;;;;;;;1.13;0.50;;;;;;;5.29;44.04;101649.75;4979012;28;20039;-85
2022/04/29 11:54:20;;;;;;;0.60;0.60;;;;;;;5.30;42.51;101651.44;4991206;28;20045;-86
2022/04/29 11:56:46;;;;;;;0.73;0.60;;;;;;;5.13;42.17;101645.69;4976691;28;20129;-82
2022/04/29 11:59:12;;;;;;;1.00;0.57;;;;;;;5.02;43.43;101646.38;4991869;28;20047;-83
2022/04/29 12:01:39;;;;;;;0.80;0.68;;;;;;;5.05;43.74;101650.59;4975331;28;20035;-85
2022/04/29 12:04:06;;;;;;;2.35;0.70;;;;;;;5.11;44.10;101655.13;4991208;28;20100;-88
2022/04/29 12:06:32;;;;;;;1.23;0.50;;;;;;;5.19;43.84;101651.28;4995813;28;20450;-86
2022/04/29 12:08:57;;;;;;;0.50;0.50;;;;;;;5.24;43.30;101648.78;5008951;28;20034;-89
2022/04/29 12:11:27;;;;;;;1.85;0.80;;;;;;;5.24;43.16;101654.22;4997787;28;20088;-91
2022/04/29 12:13:52;;;;;;;1.33;0.82;;;;;;;5.28;42.55;101667.16;4996512;28;20054;-89
2022/04/29 12:16:18;;;;;;;1.40;0.80;;;;;;;5.32;41.63;101653.94;4991909;28;20042;-85
2022/04/29 12:18:46;;;;;;;2.05;0.50;;;;;;;5.26;41.72;101660.25;4993942;28;20038;-84